sensor_id;sensor_type;location;lat;lon;timestamp;temperature;humidity
22319;DHT22;11327;52.334;9.506;2023-06-10T00:01:09;18.70;99.90
22319;DHT22;11327;52.334;9.506;2023-06-10T00:04:30;18.60;99.90
22319;DHT22;11327;52.334;9.506;2023-06-10T00:07:51;18.60;99.90
22319;DHT22;11327;52.334;9.506;2023-06-10T00:11:12;18.50;99.90
22319;DHT22;11327;52.334;9.506;2023-06-10T00:14:34;18.40;99.90
22319;DHT22;11327;52.334;9.506;2023-06-10T00:17:55;18.30;99.90
22319;DHT22;11327;52.334;9.506;2023-06-10T00:21:16;18.10;99.90
22319;DHT22;11327;52.334;9.506;2023-06-10T00:24:37;18.00;99.90
22319;DHT22;11327;52.334;9.506;2023-06-10T00:27:58;17.90;99.90
22319;DHT22;11327;52.334;9.506;2023-06-10T00:31:19;17.80;99.90
22319;DHT22;11327;52.334;9.506;2023-06-10T00:34:39;17.70;99.90
22319;DHT22;11327;52.334;9.506;2023-06-10T00:38:00;17.60;99.90
22319;DHT22;11327;52.334;9.506;2023-06-10T00:41:21;17.50;99.90
22319;DHT22;11327;52.334;9.506;2023-06-10T00:44:42;17.40;99.90
22319;DHT22;11327;52.334;9.506;2023-06-10T00:48:03;17.30;99.90
22319;DHT22;11327;52.334;9.506;2023-06-10T00:51:24;17.20;99.90
22319;DHT22;11327;52.334;9.506;2023-06-10T00:54:46;17.20;99.90
22319;DHT22;11327;52.334;9.506;2023-06-10T00:58:07;17.10;99.90
22319;DHT22;11327;52.334;9.506;2023-06-10T01:01:28;17.00;99.90
22319;DHT22;11327;52.334;9.506;2023-06-10T01:04:49;16.90;99.90
22319;DHT22;11327;52.334;9.506;2023-06-10T01:08:28;16.80;99.90
22319;DHT22;11327;52.334;9.506;2023-06-10T01:12:02;16.80;99.90
22319;DHT22;11327;52.334;9.506;2023-06-10T01:15:23;16.80;99.90
22319;DHT22;11327;52.334;9.506;2023-06-10T01:18:44;16.70;99.90
22319;DHT22;11327;52.334;9.506;2023-06-10T01:22:05;16.60;99.90
22319;DHT22;11327;52.334;9.506;2023-06-10T01:25:27;16.70;99.90
22319;DHT22;11327;52.334;9.506;2023-06-10T01:28:52;16.70;99.90
22319;DHT22;11327;52.334;9.506;2023-06-10T01:32:32;16.60;99.90
22319;DHT22;11327;52.334;9.506;2023-06-10T01:35:52;16.70;99.90
22319;DHT22;11327;52.334;9.506;2023-06-10T01:39:15;16.60;99.90
22319;DHT22;11327;52.334;9.506;2023-06-10T01:42:37;16.60;99.90
22319;DHT22;11327;52.334;9.506;2023-06-10T01:45:58;16.50;99.90
22319;DHT22;11327;52.334;9.506;2023-06-10T01:49:18;16.50;99.90
22319;DHT22;11327;52.334;9.506;2023-06-10T01:52:39;16.60;99.90
22319;DHT22;11327;52.334;9.506;2023-06-10T01:56:00;16.70;99.90
22319;DHT22;11327;52.334;9.506;2023-06-10T01:59:20;16.50;99.90
22319;DHT22;11327;52.334;9.506;2023-06-10T02:02:41;16.40;99.90
22319;DHT22;11327;52.334;9.506;2023-06-10T02:06:02;16.30;99.90
22319;DHT22;11327;52.334;9.506;2023-06-10T02:09:23;16.10;99.90
22319;DHT22;11327;52.334;9.506;2023-06-10T02:12:44;16.10;99.90
22319;DHT22;11327;52.334;9.506;2023-06-10T02:16:04;16.10;99.90
22319;DHT22;11327;52.334;9.506;2023-06-10T02:19:26;16.00;99.90
22319;DHT22;11327;52.334;9.506;2023-06-10T02:22:47;15.90;99.90
22319;DHT22;11327;52.334;9.506;2023-06-10T02:26:08;15.90;99.90
22319;DHT22;11327;52.334;9.506;2023-06-10T02:29:29;15.90;99.90
22319;DHT22;11327;52.334;9.506;2023-06-10T02:32:50;15.90;99.90
22319;DHT22;11327;52.334;9.506;2023-06-10T02:36:11;15.90;99.90
22319;DHT22;11327;52.334;9.506;2023-06-10T02:39:36;15.90;99.90
22319;DHT22;11327;52.334;9.506;2023-06-10T02:42:57;15.80;99.90
22319;DHT22;11327;52.334;9.506;2023-06-10T02:46:19;15.70;99.90
22319;DHT22;11327;52.334;9.506;2023-06-10T02:49:39;15.60;99.90
22319;DHT22;11327;52.334;9.506;2023-06-10T02:53:00;15.60;99.90
22319;DHT22;11327;52.334;9.506;2023-06-10T02:56:21;15.50;99.90
22319;DHT22;11327;52.334;9.506;2023-06-10T02:59:42;15.40;99.90
22319;DHT22;11327;52.334;9.506;2023-06-10T03:03:03;15.40;99.90
22319;DHT22;11327;52.334;9.506;2023-06-10T03:06:25;15.40;99.90
22319;DHT22;11327;52.334;9.506;2023-06-10T03:09:46;15.40;99.90
22319;DHT22;11327;52.334;9.506;2023-06-10T03:13:07;15.40;99.90
22319;DHT22;11327;52.334;9.506;2023-06-10T03:16:30;15.40;99.90
22319;DHT22;11327;52.334;9.506;2023-06-10T03:19:51;15.30;99.90
22319;DHT22;11327;52.334;9.506;2023-06-10T03:23:12;15.30;99.90
22319;DHT22;11327;52.334;9.506;2023-06-10T03:26:33;15.30;99.90
22319;DHT22;11327;52.334;9.506;2023-06-10T03:29:53;15.20;99.90
22319;DHT22;11327;52.334;9.506;2023-06-10T03:33:14;15.20;99.90
22319;DHT22;11327;52.334;9.506;2023-06-10T03:36:35;15.20;99.90
22319;DHT22;11327;52.334;9.506;2023-06-10T03:39:57;15.10;99.90
22319;DHT22;11327;52.334;9.506;2023-06-10T03:43:18;15.00;99.90
22319;DHT22;11327;52.334;9.506;2023-06-10T03:46:39;15.10;99.90
22319;DHT22;11327;52.334;9.506;2023-06-10T03:50:07;15.10;99.90
22319;DHT22;11327;52.334;9.506;2023-06-10T03:53:25;15.10;99.90
22319;DHT22;11327;52.334;9.506;2023-06-10T03:56:45;15.10;99.90
22319;DHT22;11327;52.334;9.506;2023-06-10T04:00:09;15.00;99.90
22319;DHT22;11327;52.334;9.506;2023-06-10T04:03:32;15.10;99.90
22319;DHT22;11327;52.334;9.506;2023-06-10T04:06:53;15.10;99.90
22319;DHT22;11327;52.334;9.506;2023-06-10T04:10:15;15.10;99.90
22319;DHT22;11327;52.334;9.506;2023-06-10T04:13:36;15.10;99.90
22319;DHT22;11327;52.334;9.506;2023-06-10T04:16:57;15.10;99.90
22319;DHT22;11327;52.334;9.506;2023-06-10T04:20:18;15.10;99.90
22319;DHT22;11327;52.334;9.506;2023-06-10T04:23:38;15.20;99.90
22319;DHT22;11327;52.334;9.506;2023-06-10T04:26:59;15.20;99.90
22319;DHT22;11327;52.334;9.506;2023-06-10T04:30:21;15.10;99.90
22319;DHT22;11327;52.334;9.506;2023-06-10T04:33:41;15.10;99.90
22319;DHT22;11327;52.334;9.506;2023-06-10T04:37:02;15.20;99.90
22319;DHT22;11327;52.334;9.506;2023-06-10T04:40:23;15.20;99.90
22319;DHT22;11327;52.334;9.506;2023-06-10T04:43:44;15.20;99.90
22319;DHT22;11327;52.334;9.506;2023-06-10T04:47:05;15.30;99.90
22319;DHT22;11327;52.334;9.506;2023-06-10T04:50:27;15.40;99.90
22319;DHT22;11327;52.334;9.506;2023-06-10T04:53:48;15.40;99.90
22319;DHT22;11327;52.334;9.506;2023-06-10T04:57:09;15.40;99.90
22319;DHT22;11327;52.334;9.506;2023-06-10T05:00:31;15.50;99.90
22319;DHT22;11327;52.334;9.506;2023-06-10T05:03:52;15.50;99.90
22319;DHT22;11327;52.334;9.506;2023-06-10T05:07:13;15.50;99.90
22319;DHT22;11327;52.334;9.506;2023-06-10T05:10:33;15.60;99.90
22319;DHT22;11327;52.334;9.506;2023-06-10T05:13:54;15.60;99.90
22319;DHT22;11327;52.334;9.506;2023-06-10T05:17:15;15.70;99.90
22319;DHT22;11327;52.334;9.506;2023-06-10T05:20:36;15.70;99.90
22319;DHT22;11327;52.334;9.506;2023-06-10T05:23:57;15.80;99.90
22319;DHT22;11327;52.334;9.506;2023-06-10T05:27:18;15.80;99.90
22319;DHT22;11327;52.334;9.506;2023-06-10T05:30:39;15.90;99.90
22319;DHT22;11327;52.334;9.506;2023-06-10T05:34:00;16.00;99.90
22319;DHT22;11327;52.334;9.506;2023-06-10T05:37:20;16.00;99.90
22319;DHT22;11327;52.334;9.506;2023-06-10T05:40:41;16.10;99.90
22319;DHT22;11327;52.334;9.506;2023-06-10T05:44:02;16.20;99.90
22319;DHT22;11327;52.334;9.506;2023-06-10T05:47:23;16.20;99.90
22319;DHT22;11327;52.334;9.506;2023-06-10T05:50:43;16.30;99.90
22319;DHT22;11327;52.334;9.506;2023-06-10T05:54:06;16.40;99.90
22319;DHT22;11327;52.334;9.506;2023-06-10T05:57:27;16.40;99.90
22319;DHT22;11327;52.334;9.506;2023-06-10T06:00:47;16.40;99.90
22319;DHT22;11327;52.334;9.506;2023-06-10T06:04:08;16.40;99.90
22319;DHT22;11327;52.334;9.506;2023-06-10T06:07:29;16.40;99.90
22319;DHT22;11327;52.334;9.506;2023-06-10T06:10:50;16.50;99.90
22319;DHT22;11327;52.334;9.506;2023-06-10T06:14:11;16.50;99.90
22319;DHT22;11327;52.334;9.506;2023-06-10T06:17:31;16.60;99.90
22319;DHT22;11327;52.334;9.506;2023-06-10T06:20:52;16.70;99.90
22319;DHT22;11327;52.334;9.506;2023-06-10T06:24:15;16.80;99.90
22319;DHT22;11327;52.334;9.506;2023-06-10T06:27:35;16.80;99.90
22319;DHT22;11327;52.334;9.506;2023-06-10T06:30:57;16.90;99.90
22319;DHT22;11327;52.334;9.506;2023-06-10T06:34:17;17.00;99.90
22319;DHT22;11327;52.334;9.506;2023-06-10T06:37:38;17.10;99.90
22319;DHT22;11327;52.334;9.506;2023-06-10T06:40:59;17.20;99.90
22319;DHT22;11327;52.334;9.506;2023-06-10T06:44:21;17.30;99.90
22319;DHT22;11327;52.334;9.506;2023-06-10T06:47:42;17.60;99.90
22319;DHT22;11327;52.334;9.506;2023-06-10T06:51:04;17.60;99.90
22319;DHT22;11327;52.334;9.506;2023-06-10T06:54:24;17.70;99.90
22319;DHT22;11327;52.334;9.506;2023-06-10T06:57:45;17.80;99.90
22319;DHT22;11327;52.334;9.506;2023-06-10T07:01:06;17.90;99.90
22319;DHT22;11327;52.334;9.506;2023-06-10T07:04:26;18.20;99.90
22319;DHT22;11327;52.334;9.506;2023-06-10T07:07:47;18.20;99.90
22319;DHT22;11327;52.334;9.506;2023-06-10T07:11:08;18.30;99.90
22319;DHT22;11327;52.334;9.506;2023-06-10T07:14:28;18.40;99.90
22319;DHT22;11327;52.334;9.506;2023-06-10T07:17:49;18.60;99.90
22319;DHT22;11327;52.334;9.506;2023-06-10T07:21:10;18.80;99.90
22319;DHT22;11327;52.334;9.506;2023-06-10T07:24:31;18.90;99.90
22319;DHT22;11327;52.334;9.506;2023-06-10T07:27:52;19.10;99.90
22319;DHT22;11327;52.334;9.506;2023-06-10T07:31:13;19.20;99.90
22319;DHT22;11327;52.334;9.506;2023-06-10T07:34:33;19.10;99.90
22319;DHT22;11327;52.334;9.506;2023-06-10T07:37:54;19.30;99.90
22319;DHT22;11327;52.334;9.506;2023-06-10T07:41:15;19.40;99.90
22319;DHT22;11327;52.334;9.506;2023-06-10T07:44:37;19.50;99.90
22319;DHT22;11327;52.334;9.506;2023-06-10T07:47:58;19.70;99.90
22319;DHT22;11327;52.334;9.506;2023-06-10T07:51:19;19.90;99.90
22319;DHT22;11327;52.334;9.506;2023-06-10T07:54:39;20.00;99.90
22319;DHT22;11327;52.334;9.506;2023-06-10T07:58:00;20.20;99.90
22319;DHT22;11327;52.334;9.506;2023-06-10T08:01:22;20.20;99.90
22319;DHT22;11327;52.334;9.506;2023-06-10T08:04:44;20.20;99.90
22319;DHT22;11327;52.334;9.506;2023-06-10T08:08:04;20.30;99.90
22319;DHT22;11327;52.334;9.506;2023-06-10T08:11:25;20.50;99.90
22319;DHT22;11327;52.334;9.506;2023-06-10T08:14:48;20.50;99.90
22319;DHT22;11327;52.334;9.506;2023-06-10T08:18:09;20.60;99.90
22319;DHT22;11327;52.334;9.506;2023-06-10T08:21:29;20.80;99.90
22319;DHT22;11327;52.334;9.506;2023-06-10T08:24:50;21.00;99.90
22319;DHT22;11327;52.334;9.506;2023-06-10T08:28:11;21.20;99.90
22319;DHT22;11327;52.334;9.506;2023-06-10T08:31:32;21.30;99.90
22319;DHT22;11327;52.334;9.506;2023-06-10T08:34:52;21.40;99.90
22319;DHT22;11327;52.334;9.506;2023-06-10T08:38:13;21.50;99.90
22319;DHT22;11327;52.334;9.506;2023-06-10T08:41:42;21.60;99.90
22319;DHT22;11327;52.334;9.506;2023-06-10T08:45:02;21.80;99.90
22319;DHT22;11327;52.334;9.506;2023-06-10T08:48:24;22.10;99.90
22319;DHT22;11327;52.334;9.506;2023-06-10T08:51:47;22.10;99.90
22319;DHT22;11327;52.334;9.506;2023-06-10T08:55:15;22.30;99.90
22319;DHT22;11327;52.334;9.506;2023-06-10T08:58:38;22.40;99.90
22319;DHT22;11327;52.334;9.506;2023-06-10T09:02:02;22.50;99.90
22319;DHT22;11327;52.334;9.506;2023-06-10T09:05:26;22.60;99.90
22319;DHT22;11327;52.334;9.506;2023-06-10T09:08:48;22.70;99.90
22319;DHT22;11327;52.334;9.506;2023-06-10T09:12:09;22.90;99.90
22319;DHT22;11327;52.334;9.506;2023-06-10T09:15:30;22.80;99.90
22319;DHT22;11327;52.334;9.506;2023-06-10T09:18:51;23.00;99.90
22319;DHT22;11327;52.334;9.506;2023-06-10T09:22:13;23.20;99.90
22319;DHT22;11327;52.334;9.506;2023-06-10T09:25:37;23.40;99.90
22319;DHT22;11327;52.334;9.506;2023-06-10T09:29:09;23.60;99.90
22319;DHT22;11327;52.334;9.506;2023-06-10T09:32:28;23.80;99.90
22319;DHT22;11327;52.334;9.506;2023-06-10T09:35:50;24.00;99.90
22319;DHT22;11327;52.334;9.506;2023-06-10T09:39:16;24.00;99.90
22319;DHT22;11327;52.334;9.506;2023-06-10T09:42:38;24.30;99.90
22319;DHT22;11327;52.334;9.506;2023-06-10T09:45:59;24.40;99.90
22319;DHT22;11327;52.334;9.506;2023-06-10T09:49:20;24.60;99.90
22319;DHT22;11327;52.334;9.506;2023-06-10T09:52:40;24.70;99.90
22319;DHT22;11327;52.334;9.506;2023-06-10T09:56:01;24.90;99.90
22319;DHT22;11327;52.334;9.506;2023-06-10T09:59:29;25.10;99.90
22319;DHT22;11327;52.334;9.506;2023-06-10T10:02:53;25.20;99.90
22319;DHT22;11327;52.334;9.506;2023-06-10T10:06:15;25.20;99.90
22319;DHT22;11327;52.334;9.506;2023-06-10T10:09:37;25.50;99.90
22319;DHT22;11327;52.334;9.506;2023-06-10T10:12:58;25.50;99.90
22319;DHT22;11327;52.334;9.506;2023-06-10T10:16:28;25.60;99.90
22319;DHT22;11327;52.334;9.506;2023-06-10T10:19:50;25.70;99.90
22319;DHT22;11327;52.334;9.506;2023-06-10T10:23:13;25.70;99.90
22319;DHT22;11327;52.334;9.506;2023-06-10T10:26:38;25.80;99.90
22319;DHT22;11327;52.334;9.506;2023-06-10T10:29:59;25.90;99.90
22319;DHT22;11327;52.334;9.506;2023-06-10T10:33:31;26.00;99.90
22319;DHT22;11327;52.334;9.506;2023-06-10T10:36:50;26.10;99.90
22319;DHT22;11327;52.334;9.506;2023-06-10T10:40:11;26.20;99.90
22319;DHT22;11327;52.334;9.506;2023-06-10T10:43:33;26.20;99.90
22319;DHT22;11327;52.334;9.506;2023-06-10T10:46:54;26.50;99.90
22319;DHT22;11327;52.334;9.506;2023-06-10T10:50:16;26.50;99.90
22319;DHT22;11327;52.334;9.506;2023-06-10T10:53:38;26.80;99.90
22319;DHT22;11327;52.334;9.506;2023-06-10T11:00:34;27.00;99.90
22319;DHT22;11327;52.334;9.506;2023-06-10T11:03:56;27.20;99.90
22319;DHT22;11327;52.334;9.506;2023-06-10T11:07:21;27.40;99.90
22319;DHT22;11327;52.334;9.506;2023-06-10T11:10:52;27.40;99.90
22319;DHT22;11327;52.334;9.506;2023-06-10T11:14:15;27.40;99.90
22319;DHT22;11327;52.334;9.506;2023-06-10T11:17:37;27.70;99.90
22319;DHT22;11327;52.334;9.506;2023-06-10T11:21:02;27.80;99.90
22319;DHT22;11327;52.334;9.506;2023-06-10T11:24:25;28.00;99.90
22319;DHT22;11327;52.334;9.506;2023-06-10T11:27:48;28.10;99.90
22319;DHT22;11327;52.334;9.506;2023-06-10T11:34:51;28.30;99.90
22319;DHT22;11327;52.334;9.506;2023-06-10T11:38:09;28.40;99.90
22319;DHT22;11327;52.334;9.506;2023-06-10T11:41:31;28.40;99.90
22319;DHT22;11327;52.334;9.506;2023-06-10T11:44:52;28.30;99.90
22319;DHT22;11327;52.334;9.506;2023-06-10T11:48:13;28.30;99.90
22319;DHT22;11327;52.334;9.506;2023-06-10T11:51:36;28.30;99.90
22319;DHT22;11327;52.334;9.506;2023-06-10T11:54:57;28.30;99.90
22319;DHT22;11327;52.334;9.506;2023-06-10T11:58:20;28.40;99.90
22319;DHT22;11327;52.334;9.506;2023-06-10T12:01:44;28.60;99.90
22319;DHT22;11327;52.334;9.506;2023-06-10T12:05:12;28.50;99.90
22319;DHT22;11327;52.334;9.506;2023-06-10T12:08:40;28.60;99.90
22319;DHT22;11327;52.334;9.506;2023-06-10T12:12:03;28.90;99.90
22319;DHT22;11327;52.334;9.506;2023-06-10T12:15:24;28.90;99.90
22319;DHT22;11327;52.334;9.506;2023-06-10T12:18:46;29.10;99.90
22319;DHT22;11327;52.334;9.506;2023-06-10T12:22:07;29.10;99.90
22319;DHT22;11327;52.334;9.506;2023-06-10T12:25:29;29.30;99.90
22319;DHT22;11327;52.334;9.506;2023-06-10T12:28:50;29.50;99.90
22319;DHT22;11327;52.334;9.506;2023-06-10T12:32:11;29.40;99.90
22319;DHT22;11327;52.334;9.506;2023-06-10T12:35:33;29.50;99.90
22319;DHT22;11327;52.334;9.506;2023-06-10T12:39:02;29.60;99.90
22319;DHT22;11327;52.334;9.506;2023-06-10T12:42:23;29.50;99.90
22319;DHT22;11327;52.334;9.506;2023-06-10T12:45:44;29.40;99.90
22319;DHT22;11327;52.334;9.506;2023-06-10T12:49:05;29.50;99.90
22319;DHT22;11327;52.334;9.506;2023-06-10T12:52:26;29.40;99.90
22319;DHT22;11327;52.334;9.506;2023-06-10T12:55:47;29.50;99.90
22319;DHT22;11327;52.334;9.506;2023-06-10T12:59:07;29.70;99.90
22319;DHT22;11327;52.334;9.506;2023-06-10T13:02:28;29.70;99.90
22319;DHT22;11327;52.334;9.506;2023-06-10T13:05:49;29.80;99.90
22319;DHT22;11327;52.334;9.506;2023-06-10T13:09:10;30.00;99.90
22319;DHT22;11327;52.334;9.506;2023-06-10T13:12:30;29.90;99.90
22319;DHT22;11327;52.334;9.506;2023-06-10T13:15:51;30.00;99.90
22319;DHT22;11327;52.334;9.506;2023-06-10T13:19:12;29.90;99.90
22319;DHT22;11327;52.334;9.506;2023-06-10T13:22:33;29.90;99.90
22319;DHT22;11327;52.334;9.506;2023-06-10T13:25:55;30.00;99.90
22319;DHT22;11327;52.334;9.506;2023-06-10T13:29:16;30.10;99.90
22319;DHT22;11327;52.334;9.506;2023-06-10T13:32:37;30.00;99.90
22319;DHT22;11327;52.334;9.506;2023-06-10T13:35:57;30.00;99.90
22319;DHT22;11327;52.334;9.506;2023-06-10T13:39:18;30.10;99.90
22319;DHT22;11327;52.334;9.506;2023-06-10T13:42:39;30.10;99.90
22319;DHT22;11327;52.334;9.506;2023-06-10T13:46:00;30.10;99.90
22319;DHT22;11327;52.334;9.506;2023-06-10T13:49:20;30.10;99.90
22319;DHT22;11327;52.334;9.506;2023-06-10T13:52:41;30.10;99.90
22319;DHT22;11327;52.334;9.506;2023-06-10T13:56:02;30.20;99.90
22319;DHT22;11327;52.334;9.506;2023-06-10T13:59:23;30.20;99.90
22319;DHT22;11327;52.334;9.506;2023-06-10T14:02:43;30.20;99.90
22319;DHT22;11327;52.334;9.506;2023-06-10T14:06:05;30.10;99.90
22319;DHT22;11327;52.334;9.506;2023-06-10T14:09:25;30.00;99.90
22319;DHT22;11327;52.334;9.506;2023-06-10T14:12:46;30.10;99.90
22319;DHT22;11327;52.334;9.506;2023-06-10T14:16:07;30.20;99.90
22319;DHT22;11327;52.334;9.506;2023-06-10T14:19:28;30.00;99.90
22319;DHT22;11327;52.334;9.506;2023-06-10T14:22:49;30.10;99.90
22319;DHT22;11327;52.334;9.506;2023-06-10T14:26:10;30.00;99.90
22319;DHT22;11327;52.334;9.506;2023-06-10T14:29:30;30.00;99.90
22319;DHT22;11327;52.334;9.506;2023-06-10T14:32:52;30.00;99.90
22319;DHT22;11327;52.334;9.506;2023-06-10T14:36:12;29.90;99.90
22319;DHT22;11327;52.334;9.506;2023-06-10T14:39:33;30.00;99.90
22319;DHT22;11327;52.334;9.506;2023-06-10T14:42:55;29.90;99.60
22319;DHT22;11327;52.334;9.506;2023-06-10T14:46:15;30.00;99.90
22319;DHT22;11327;52.334;9.506;2023-06-10T14:49:36;30.00;98.40
22319;DHT22;11327;52.334;9.506;2023-06-10T14:52:57;30.00;99.30
22319;DHT22;11327;52.334;9.506;2023-06-10T14:56:18;30.00;99.00
22319;DHT22;11327;52.334;9.506;2023-06-10T14:59:39;30.00;99.30
22319;DHT22;11327;52.334;9.506;2023-06-10T15:03:00;30.00;99.20
22319;DHT22;11327;52.334;9.506;2023-06-10T15:06:20;29.90;99.30
22319;DHT22;11327;52.334;9.506;2023-06-10T15:09:43;29.90;99.70
22319;DHT22;11327;52.334;9.506;2023-06-10T15:13:04;30.00;99.80
22319;DHT22;11327;52.334;9.506;2023-06-10T15:16:25;29.90;99.70
22319;DHT22;11327;52.334;9.506;2023-06-10T15:19:45;30.00;99.90
22319;DHT22;11327;52.334;9.506;2023-06-10T15:23:06;30.00;98.80
22319;DHT22;11327;52.334;9.506;2023-06-10T15:26:28;30.00;98.50
22319;DHT22;11327;52.334;9.506;2023-06-10T15:29:49;30.00;99.50
22319;DHT22;11327;52.334;9.506;2023-06-10T15:33:09;30.00;99.80
22319;DHT22;11327;52.334;9.506;2023-06-10T15:36:30;30.00;99.90
22319;DHT22;11327;52.334;9.506;2023-06-10T15:39:51;30.00;98.80
22319;DHT22;11327;52.334;9.506;2023-06-10T15:43:12;30.00;98.70
22319;DHT22;11327;52.334;9.506;2023-06-10T15:46:34;29.90;98.50
22319;DHT22;11327;52.334;9.506;2023-06-10T15:49:55;30.00;98.90
22319;DHT22;11327;52.334;9.506;2023-06-10T15:53:16;30.00;99.10
22319;DHT22;11327;52.334;9.506;2023-06-10T15:56:36;30.00;99.50
22319;DHT22;11327;52.334;9.506;2023-06-10T15:59:59;30.00;99.00
22319;DHT22;11327;52.334;9.506;2023-06-10T16:03:20;30.00;98.70
22319;DHT22;11327;52.334;9.506;2023-06-10T16:06:40;30.00;99.00
22319;DHT22;11327;52.334;9.506;2023-06-10T16:10:01;30.00;98.80
22319;DHT22;11327;52.334;9.506;2023-06-10T16:13:22;29.90;99.00
22319;DHT22;11327;52.334;9.506;2023-06-10T16:16:43;29.90;98.80
22319;DHT22;11327;52.334;9.506;2023-06-10T16:20:05;29.90;98.10
22319;DHT22;11327;52.334;9.506;2023-06-10T16:23:26;29.80;98.40
22319;DHT22;11327;52.334;9.506;2023-06-10T16:26:46;29.90;99.80
22319;DHT22;11327;52.334;9.506;2023-06-10T16:30:09;29.80;98.90
22319;DHT22;11327;52.334;9.506;2023-06-10T16:33:30;29.90;99.20
22319;DHT22;11327;52.334;9.506;2023-06-10T16:36:51;29.90;98.90
22319;DHT22;11327;52.334;9.506;2023-06-10T16:40:12;29.90;99.00
22319;DHT22;11327;52.334;9.506;2023-06-10T16:43:32;29.80;98.30
22319;DHT22;11327;52.334;9.506;2023-06-10T16:46:53;29.70;98.30
22319;DHT22;11327;52.334;9.506;2023-06-10T16:50:14;29.70;99.40
22319;DHT22;11327;52.334;9.506;2023-06-10T16:53:35;29.70;99.90
22319;DHT22;11327;52.334;9.506;2023-06-10T16:56:55;29.60;99.90
22319;DHT22;11327;52.334;9.506;2023-06-10T17:00:16;29.50;99.90
22319;DHT22;11327;52.334;9.506;2023-06-10T17:03:37;29.40;99.90
22319;DHT22;11327;52.334;9.506;2023-06-10T17:06:58;29.30;99.40
22319;DHT22;11327;52.334;9.506;2023-06-10T17:10:19;29.30;99.70
22319;DHT22;11327;52.334;9.506;2023-06-10T17:13:40;29.20;99.40
22319;DHT22;11327;52.334;9.506;2023-06-10T17:17:00;29.10;99.70
22319;DHT22;11327;52.334;9.506;2023-06-10T17:20:21;29.10;99.90
22319;DHT22;11327;52.334;9.506;2023-06-10T17:23:42;29.00;99.90
22319;DHT22;11327;52.334;9.506;2023-06-10T17:27:03;28.90;99.90
22319;DHT22;11327;52.334;9.506;2023-06-10T17:30:24;28.60;99.70
22319;DHT22;11327;52.334;9.506;2023-06-10T17:33:45;27.90;99.90
22319;DHT22;11327;52.334;9.506;2023-06-10T17:37:05;27.40;99.90
22319;DHT22;11327;52.334;9.506;2023-06-10T17:40:26;26.80;99.90
22319;DHT22;11327;52.334;9.506;2023-06-10T17:43:47;26.50;99.90
22319;DHT22;11327;52.334;9.506;2023-06-10T17:47:08;26.30;99.90
22319;DHT22;11327;52.334;9.506;2023-06-10T17:50:29;26.00;99.90
22319;DHT22;11327;52.334;9.506;2023-06-10T17:53:49;25.90;99.90
22319;DHT22;11327;52.334;9.506;2023-06-10T17:57:10;25.80;99.90
22319;DHT22;11327;52.334;9.506;2023-06-10T18:00:31;25.60;99.90
22319;DHT22;11327;52.334;9.506;2023-06-10T18:03:52;25.40;99.90
22319;DHT22;11327;52.334;9.506;2023-06-10T18:07:13;25.20;99.90
22319;DHT22;11327;52.334;9.506;2023-06-10T18:10:33;25.00;99.90
22319;DHT22;11327;52.334;9.506;2023-06-10T18:13:54;24.90;99.90
22319;DHT22;11327;52.334;9.506;2023-06-10T18:17:15;24.80;99.90
22319;DHT22;11327;52.334;9.506;2023-06-10T18:20:35;24.70;99.90
22319;DHT22;11327;52.334;9.506;2023-06-10T18:23:56;24.70;99.90
22319;DHT22;11327;52.334;9.506;2023-06-10T18:27:17;24.70;99.90
22319;DHT22;11327;52.334;9.506;2023-06-10T18:30:38;24.60;99.90
22319;DHT22;11327;52.334;9.506;2023-06-10T18:33:58;24.40;99.90
22319;DHT22;11327;52.334;9.506;2023-06-10T18:37:19;24.30;99.90
22319;DHT22;11327;52.334;9.506;2023-06-10T18:40:40;24.20;99.90
22319;DHT22;11327;52.334;9.506;2023-06-10T18:44:00;24.10;99.90
22319;DHT22;11327;52.334;9.506;2023-06-10T18:47:21;24.10;99.90
22319;DHT22;11327;52.334;9.506;2023-06-10T18:50:42;24.00;99.90
22319;DHT22;11327;52.334;9.506;2023-06-10T18:54:03;24.00;99.90
22319;DHT22;11327;52.334;9.506;2023-06-10T18:57:24;24.00;99.90
22319;DHT22;11327;52.334;9.506;2023-06-10T19:00:45;23.90;99.90
22319;DHT22;11327;52.334;9.506;2023-06-10T19:04:05;23.90;99.90
22319;DHT22;11327;52.334;9.506;2023-06-10T19:07:26;23.90;99.90
22319;DHT22;11327;52.334;9.506;2023-06-10T19:10:47;23.80;99.90
22319;DHT22;11327;52.334;9.506;2023-06-10T19:14:08;23.80;99.90
22319;DHT22;11327;52.334;9.506;2023-06-10T19:17:28;23.70;99.90
22319;DHT22;11327;52.334;9.506;2023-06-10T19:20:50;23.60;99.90
22319;DHT22;11327;52.334;9.506;2023-06-10T19:24:10;23.60;99.90
22319;DHT22;11327;52.334;9.506;2023-06-10T19:27:32;23.50;99.90
22319;DHT22;11327;52.334;9.506;2023-06-10T19:30:53;23.40;99.90
22319;DHT22;11327;52.334;9.506;2023-06-10T19:34:14;23.30;99.90
22319;DHT22;11327;52.334;9.506;2023-06-10T19:37:34;23.20;99.90
22319;DHT22;11327;52.334;9.506;2023-06-10T19:40:55;23.10;99.90
22319;DHT22;11327;52.334;9.506;2023-06-10T19:44:16;23.00;99.90
22319;DHT22;11327;52.334;9.506;2023-06-10T19:47:37;22.90;99.90
22319;DHT22;11327;52.334;9.506;2023-06-10T19:50:57;22.80;99.90
22319;DHT22;11327;52.334;9.506;2023-06-10T19:54:18;22.80;99.90
22319;DHT22;11327;52.334;9.506;2023-06-10T19:57:39;22.70;99.90
22319;DHT22;11327;52.334;9.506;2023-06-10T20:01:00;22.60;99.90
22319;DHT22;11327;52.334;9.506;2023-06-10T20:04:21;22.60;99.90
22319;DHT22;11327;52.334;9.506;2023-06-10T20:07:42;22.50;99.90
22319;DHT22;11327;52.334;9.506;2023-06-10T20:11:03;22.50;99.90
22319;DHT22;11327;52.334;9.506;2023-06-10T20:14:23;22.40;99.90
22319;DHT22;11327;52.334;9.506;2023-06-10T20:17:44;22.20;99.90
22319;DHT22;11327;52.334;9.506;2023-06-10T20:21:07;22.00;99.90
22319;DHT22;11327;52.334;9.506;2023-06-10T20:24:27;22.00;99.90
22319;DHT22;11327;52.334;9.506;2023-06-10T20:27:48;21.70;99.90
22319;DHT22;11327;52.334;9.506;2023-06-10T20:31:09;21.70;99.90
22319;DHT22;11327;52.334;9.506;2023-06-10T20:34:30;21.70;99.90
22319;DHT22;11327;52.334;9.506;2023-06-10T20:37:51;21.60;99.90
22319;DHT22;11327;52.334;9.506;2023-06-10T20:41:12;21.50;99.90
22319;DHT22;11327;52.334;9.506;2023-06-10T20:44:33;21.50;99.90
22319;DHT22;11327;52.334;9.506;2023-06-10T20:47:54;21.40;99.90
22319;DHT22;11327;52.334;9.506;2023-06-10T20:51:14;21.40;99.90
22319;DHT22;11327;52.334;9.506;2023-06-10T20:54:36;21.40;99.90
22319;DHT22;11327;52.334;9.506;2023-06-10T20:57:57;21.30;99.90
22319;DHT22;11327;52.334;9.506;2023-06-10T21:01:19;21.20;99.90
22319;DHT22;11327;52.334;9.506;2023-06-10T21:04:39;21.10;99.90
22319;DHT22;11327;52.334;9.506;2023-06-10T21:08:00;21.10;99.90
22319;DHT22;11327;52.334;9.506;2023-06-10T21:11:21;21.10;99.90
22319;DHT22;11327;52.334;9.506;2023-06-10T21:14:42;21.00;99.90
22319;DHT22;11327;52.334;9.506;2023-06-10T21:18:03;20.80;99.90